sensor_id;sensor_type;location;lat;lon;timestamp;temperature;humidity
15554;DHT22;7878;44.632;10.942;2023-02-23T00:01:38;13.20;95.70
15554;DHT22;7878;44.632;10.942;2023-02-23T00:04:04;13.20;95.70
15554;DHT22;7878;44.632;10.942;2023-02-23T00:06:32;13.20;95.60
15554;DHT22;7878;44.632;10.942;2023-02-23T00:08:58;13.20;95.50
15554;DHT22;7878;44.632;10.942;2023-02-23T00:11:26;13.20;95.70
15554;DHT22;7878;44.632;10.942;2023-02-23T00:13:53;13.10;95.60
15554;DHT22;7878;44.632;10.942;2023-02-23T00:16:23;13.10;95.70
15554;DHT22;7878;44.632;10.942;2023-02-23T00:18:53;13.10;95.80
15554;DHT22;7878;44.632;10.942;2023-02-23T00:21:27;13.00;95.80
15554;DHT22;7878;44.632;10.942;2023-02-23T00:24:07;13.00;95.80
15554;DHT22;7878;44.632;10.942;2023-02-23T00:26:35;13.00;96.10
15554;DHT22;7878;44.632;10.942;2023-02-23T00:29:04;13.00;95.90
15554;DHT22;7878;44.632;10.942;2023-02-23T00:31:30;13.10;95.90
15554;DHT22;7878;44.632;10.942;2023-02-23T00:33:58;13.10;95.90
15554;DHT22;7878;44.632;10.942;2023-02-23T00:36:26;13.10;95.80
15554;DHT22;7878;44.632;10.942;2023-02-23T00:38:54;13.10;95.70
15554;DHT22;7878;44.632;10.942;2023-02-23T00:41:21;13.10;95.70
15554;DHT22;7878;44.632;10.942;2023-02-23T00:43:57;13.10;95.90
15554;DHT22;7878;44.632;10.942;2023-02-23T00:46:25;13.00;95.90
15554;DHT22;7878;44.632;10.942;2023-02-23T00:48:54;13.00;95.80
15554;DHT22;7878;44.632;10.942;2023-02-23T00:51:22;13.00;96.10
15554;DHT22;7878;44.632;10.942;2023-02-23T00:53:47;13.00;96.00
15554;DHT22;7878;44.632;10.942;2023-02-23T00:56:14;12.90;96.00
15554;DHT22;7878;44.632;10.942;2023-02-23T00:58:41;12.90;96.10
15554;DHT22;7878;44.632;10.942;2023-02-23T01:01:08;12.90;96.10
15554;DHT22;7878;44.632;10.942;2023-02-23T01:03:35;12.90;96.30
15554;DHT22;7878;44.632;10.942;2023-02-23T01:06:02;12.90;96.30
15554;DHT22;7878;44.632;10.942;2023-02-23T01:08:31;12.80;96.30
15554;DHT22;7878;44.632;10.942;2023-02-23T01:10:57;12.80;96.50
15554;DHT22;7878;44.632;10.942;2023-02-23T01:13:23;12.70;96.60
15554;DHT22;7878;44.632;10.942;2023-02-23T01:15:51;12.70;96.70
15554;DHT22;7878;44.632;10.942;2023-02-23T01:18:18;12.70;96.80
15554;DHT22;7878;44.632;10.942;2023-02-23T01:20:45;12.70;97.00
15554;DHT22;7878;44.632;10.942;2023-02-23T01:23:12;12.70;96.80
15554;DHT22;7878;44.632;10.942;2023-02-23T01:25:40;12.60;96.90
15554;DHT22;7878;44.632;10.942;2023-02-23T01:28:10;12.60;96.80
15554;DHT22;7878;44.632;10.942;2023-02-23T01:30:37;12.60;97.00
15554;DHT22;7878;44.632;10.942;2023-02-23T01:33:04;12.60;97.10
15554;DHT22;7878;44.632;10.942;2023-02-23T01:35:30;12.50;97.20
15554;DHT22;7878;44.632;10.942;2023-02-23T01:37:55;12.50;97.30
15554;DHT22;7878;44.632;10.942;2023-02-23T01:40:23;12.50;97.20
15554;DHT22;7878;44.632;10.942;2023-02-23T01:43:19;12.50;97.10
15554;DHT22;7878;44.632;10.942;2023-02-23T01:45:45;12.60;97.30
15554;DHT22;7878;44.632;10.942;2023-02-23T01:48:17;12.60;97.20
15554;DHT22;7878;44.632;10.942;2023-02-23T01:50:54;12.70;97.30
15554;DHT22;7878;44.632;10.942;2023-02-23T01:53:23;12.70;97.10
15554;DHT22;7878;44.632;10.942;2023-02-23T01:55:53;12.70;97.10
15554;DHT22;7878;44.632;10.942;2023-02-23T01:58:21;12.70;97.20
15554;DHT22;7878;44.632;10.942;2023-02-23T02:00:52;12.80;97.40
15554;DHT22;7878;44.632;10.942;2023-02-23T02:03:27;12.80;97.00
15554;DHT22;7878;44.632;10.942;2023-02-23T02:05:53;12.90;97.10
15554;DHT22;7878;44.632;10.942;2023-02-23T02:08:21;12.90;97.10
15554;DHT22;7878;44.632;10.942;2023-02-23T02:10:49;12.90;97.00
15554;DHT22;7878;44.632;10.942;2023-02-23T02:13:24;13.00;96.90
15554;DHT22;7878;44.632;10.942;2023-02-23T02:35:22;13.00;96.80
15554;DHT22;7878;44.632;10.942;2023-02-23T02:37:38;12.90;97.20
15554;DHT22;7878;44.632;10.942;2023-02-23T02:40:41;12.90;96.90
15554;DHT22;7878;44.632;10.942;2023-02-23T02:43:37;12.90;97.70
15554;DHT22;7878;44.632;10.942;2023-02-23T02:46:34;12.90;97.30
15554;DHT22;7878;44.632;10.942;2023-02-23T02:49:20;12.90;97.50
15554;DHT22;7878;44.632;10.942;2023-02-23T02:54:35;12.90;96.90
15554;DHT22;7878;44.632;10.942;2023-02-23T02:57:03;13.00;97.00
15554;DHT22;7878;44.632;10.942;2023-02-23T02:59:29;13.00;96.80
15554;DHT22;7878;44.632;10.942;2023-02-23T03:02:16;13.00;96.90
15554;DHT22;7878;44.632;10.942;2023-02-23T03:05:01;13.00;96.90
15554;DHT22;7878;44.632;10.942;2023-02-23T03:07:52;13.00;96.90
15554;DHT22;7878;44.632;10.942;2023-02-23T03:10:51;13.00;97.10
15554;DHT22;7878;44.632;10.942;2023-02-23T03:14:01;13.00;97.10
15554;DHT22;7878;44.632;10.942;2023-02-23T03:20:24;13.00;97.30
15554;DHT22;7878;44.632;10.942;2023-02-23T03:26:42;12.90;97.20
15554;DHT22;7878;44.632;10.942;2023-02-23T03:29:38;13.00;97.10
15554;DHT22;7878;44.632;10.942;2023-02-23T03:35:22;13.00;96.90
15554;DHT22;7878;44.632;10.942;2023-02-23T03:38:24;12.90;97.20
15554;DHT22;7878;44.632;10.942;2023-02-23T03:41:10;12.90;97.00
15554;DHT22;7878;44.632;10.942;2023-02-23T03:43:59;12.90;97.00
15554;DHT22;7878;44.632;10.942;2023-02-23T03:46:47;13.00;97.00
15554;DHT22;7878;44.632;10.942;2023-02-23T03:49:37;13.00;97.00
15554;DHT22;7878;44.632;10.942;2023-02-23T03:52:36;13.00;97.10
15554;DHT22;7878;44.632;10.942;2023-02-23T03:55:27;13.00;97.10
15554;DHT22;7878;44.632;10.942;2023-02-23T03:58:16;13.00;96.90
15554;DHT22;7878;44.632;10.942;2023-02-23T04:01:04;13.00;97.00
15554;DHT22;7878;44.632;10.942;2023-02-23T04:03:50;12.90;97.00
15554;DHT22;7878;44.632;10.942;2023-02-23T04:06:42;13.00;97.20
15554;DHT22;7878;44.632;10.942;2023-02-23T04:09:26;12.90;97.20
15554;DHT22;7878;44.632;10.942;2023-02-23T04:12:19;12.90;97.20
15554;DHT22;7878;44.632;10.942;2023-02-23T04:15:14;12.90;97.10
15554;DHT22;7878;44.632;10.942;2023-02-23T04:17:45;12.90;97.50
15554;DHT22;7878;44.632;10.942;2023-02-23T04:20:12;12.90;97.20
15554;DHT22;7878;44.632;10.942;2023-02-23T04:22:38;12.90;97.30
15554;DHT22;7878;44.632;10.942;2023-02-23T04:25:04;12.90;97.30
15554;DHT22;7878;44.632;10.942;2023-02-23T04:27:34;12.90;97.20
15554;DHT22;7878;44.632;10.942;2023-02-23T04:30:00;12.90;97.40
15554;DHT22;7878;44.632;10.942;2023-02-23T04:32:28;12.90;97.40
15554;DHT22;7878;44.632;10.942;2023-02-23T04:34:53;12.90;97.20
15554;DHT22;7878;44.632;10.942;2023-02-23T04:37:19;12.90;97.20
15554;DHT22;7878;44.632;10.942;2023-02-23T04:39:45;12.90;97.30
15554;DHT22;7878;44.632;10.942;2023-02-23T04:42:15;13.00;97.30
15554;DHT22;7878;44.632;10.942;2023-02-23T04:44:40;12.90;97.40
15554;DHT22;7878;44.632;10.942;2023-02-23T04:47:06;12.90;97.50
15554;DHT22;7878;44.632;10.942;2023-02-23T04:49:32;12.80;97.40
15554;DHT22;7878;44.632;10.942;2023-02-23T04:51:57;12.80;97.50
15554;DHT22;7878;44.632;10.942;2023-02-23T04:54:23;12.80;97.60
15554;DHT22;7878;44.632;10.942;2023-02-23T04:56:49;12.80;97.60
15554;DHT22;7878;44.632;10.942;2023-02-23T04:59:15;12.80;97.70
15554;DHT22;7878;44.632;10.942;2023-02-23T05:01:40;12.80;97.80
15554;DHT22;7878;44.632;10.942;2023-02-23T05:04:06;12.80;97.90
15554;DHT22;7878;44.632;10.942;2023-02-23T05:06:32;12.80;97.80
15554;DHT22;7878;44.632;10.942;2023-02-23T05:08:58;12.90;97.90
15554;DHT22;7878;44.632;10.942;2023-02-23T05:11:24;12.90;97.90
15554;DHT22;7878;44.632;10.942;2023-02-23T05:13:51;12.90;97.80
15554;DHT22;7878;44.632;10.942;2023-02-23T05:16:16;12.90;97.80
15554;DHT22;7878;44.632;10.942;2023-02-23T05:18:42;12.90;97.80
15554;DHT22;7878;44.632;10.942;2023-02-23T05:21:10;12.90;97.80
15554;DHT22;7878;44.632;10.942;2023-02-23T05:23:36;12.90;98.00
15554;DHT22;7878;44.632;10.942;2023-02-23T05:26:05;12.90;97.80
15554;DHT22;7878;44.632;10.942;2023-02-23T05:28:33;12.90;97.80
15554;DHT22;7878;44.632;10.942;2023-02-23T05:31:00;12.80;97.70
15554;DHT22;7878;44.632;10.942;2023-02-23T05:33:25;12.80;97.90
15554;DHT22;7878;44.632;10.942;2023-02-23T05:35:51;12.70;97.90
15554;DHT22;7878;44.632;10.942;2023-02-23T05:38:17;12.70;97.90
15554;DHT22;7878;44.632;10.942;2023-02-23T05:40:43;12.70;98.10
15554;DHT22;7878;44.632;10.942;2023-02-23T05:43:09;12.70;98.20
15554;DHT22;7878;44.632;10.942;2023-02-23T05:45:39;12.80;98.20
15554;DHT22;7878;44.632;10.942;2023-02-23T05:48:06;12.80;98.30
15554;DHT22;7878;44.632;10.942;2023-02-23T05:50:32;12.80;98.60
15554;DHT22;7878;44.632;10.942;2023-02-23T05:52:58;12.80;98.60
15554;DHT22;7878;44.632;10.942;2023-02-23T05:55:24;12.80;98.50
15554;DHT22;7878;44.632;10.942;2023-02-23T05:57:50;12.80;98.40
15554;DHT22;7878;44.632;10.942;2023-02-23T06:00:16;12.80;98.50
15554;DHT22;7878;44.632;10.942;2023-02-23T06:02:42;12.90;98.50
15554;DHT22;7878;44.632;10.942;2023-02-23T06:05:09;12.80;98.50
15554;DHT22;7878;44.632;10.942;2023-02-23T06:07:35;12.80;98.50
15554;DHT22;7878;44.632;10.942;2023-02-23T06:10:02;12.80;98.50
15554;DHT22;7878;44.632;10.942;2023-02-23T06:12:28;12.80;98.60
15554;DHT22;7878;44.632;10.942;2023-02-23T06:14:53;12.80;98.70
15554;DHT22;7878;44.632;10.942;2023-02-23T06:17:19;12.80;98.70
15554;DHT22;7878;44.632;10.942;2023-02-23T06:19:45;12.80;98.70
15554;DHT22;7878;44.632;10.942;2023-02-23T06:22:10;12.80;99.10
15554;DHT22;7878;44.632;10.942;2023-02-23T06:24:36;12.90;99.40
15554;DHT22;7878;44.632;10.942;2023-02-23T06:27:02;12.90;99.20
15554;DHT22;7878;44.632;10.942;2023-02-23T06:29:28;12.80;99.20
15554;DHT22;7878;44.632;10.942;2023-02-23T06:31:54;12.80;99.10
15554;DHT22;7878;44.632;10.942;2023-02-23T06:34:19;12.80;99.50
15554;DHT22;7878;44.632;10.942;2023-02-23T06:36:45;12.80;99.60
15554;DHT22;7878;44.632;10.942;2023-02-23T06:39:11;12.80;99.70
15554;DHT22;7878;44.632;10.942;2023-02-23T06:41:36;12.70;99.90
15554;DHT22;7878;44.632;10.942;2023-02-23T06:44:02;12.70;99.90
15554;DHT22;7878;44.632;10.942;2023-02-23T06:46:28;12.70;99.90
15554;DHT22;7878;44.632;10.942;2023-02-23T06:48:55;12.70;99.90
15554;DHT22;7878;44.632;10.942;2023-02-23T06:51:21;12.70;99.90
15554;DHT22;7878;44.632;10.942;2023-02-23T06:53:47;12.70;99.90
15554;DHT22;7878;44.632;10.942;2023-02-23T06:56:13;12.70;99.90
15554;DHT22;7878;44.632;10.942;2023-02-23T06:58:42;12.80;99.90
15554;DHT22;7878;44.632;10.942;2023-02-23T07:01:08;12.80;99.90
15554;DHT22;7878;44.632;10.942;2023-02-23T07:03:34;12.90;99.90
15554;DHT22;7878;44.632;10.942;2023-02-23T07:06:00;12.90;99.90
15554;DHT22;7878;44.632;10.942;2023-02-23T07:08:25;12.90;99.90
15554;DHT22;7878;44.632;10.942;2023-02-23T07:10:51;12.90;99.90
15554;DHT22;7878;44.632;10.942;2023-02-23T07:13:17;12.90;99.90
15554;DHT22;7878;44.632;10.942;2023-02-23T07:15:44;12.90;99.90
15554;DHT22;7878;44.632;10.942;2023-02-23T07:18:10;13.00;99.90
15554;DHT22;7878;44.632;10.942;2023-02-23T07:20:36;13.00;99.90
15554;DHT22;7878;44.632;10.942;2023-02-23T07:23:02;12.90;99.90
15554;DHT22;7878;44.632;10.942;2023-02-23T07:25:28;12.90;99.90
15554;DHT22;7878;44.632;10.942;2023-02-23T07:27:54;13.00;99.90
15554;DHT22;7878;44.632;10.942;2023-02-23T07:30:21;13.00;99.90
15554;DHT22;7878;44.632;10.942;2023-02-23T07:32:53;13.00;99.90
15554;DHT22;7878;44.632;10.942;2023-02-23T07:35:19;13.00;99.90
15554;DHT22;7878;44.632;10.942;2023-02-23T07:37:45;13.10;99.90
15554;DHT22;7878;44.632;10.942;2023-02-23T07:40:11;13.10;99.90
15554;DHT22;7878;44.632;10.942;2023-02-23T07:42:37;13.10;99.90
15554;DHT22;7878;44.632;10.942;2023-02-23T07:45:03;13.10;99.90
15554;DHT22;7878;44.632;10.942;2023-02-23T07:47:29;13.10;99.90
15554;DHT22;7878;44.632;10.942;2023-02-23T07:49:59;13.20;99.90
15554;DHT22;7878;44.632;10.942;2023-02-23T07:52:26;13.20;99.90
15554;DHT22;7878;44.632;10.942;2023-02-23T07:54:52;13.20;99.90
15554;DHT22;7878;44.632;10.942;2023-02-23T07:57:19;13.30;99.90
15554;DHT22;7878;44.632;10.942;2023-02-23T07:59:46;13.30;99.90
15554;DHT22;7878;44.632;10.942;2023-02-23T08:02:12;13.40;99.90
15554;DHT22;7878;44.632;10.942;2023-02-23T08:04:38;13.50;99.90
15554;DHT22;7878;44.632;10.942;2023-02-23T08:07:05;13.50;99.90
15554;DHT22;7878;44.632;10.942;2023-02-23T08:09:31;13.60;99.90
15554;DHT22;7878;44.632;10.942;2023-02-23T08:12:00;13.60;99.90
15554;DHT22;7878;44.632;10.942;2023-02-23T08:14:25;13.70;99.90
15554;DHT22;7878;44.632;10.942;2023-02-23T08:16:51;13.80;99.90
15554;DHT22;7878;44.632;10.942;2023-02-23T08:19:17;13.80;99.90
15554;DHT22;7878;44.632;10.942;2023-02-23T08:21:43;13.90;99.90
15554;DHT22;7878;44.632;10.942;2023-02-23T08:24:09;13.90;99.90
15554;DHT22;7878;44.632;10.942;2023-02-23T08:26:36;13.90;99.90
15554;DHT22;7878;44.632;10.942;2023-02-23T08:29:04;13.90;99.90
15554;DHT22;7878;44.632;10.942;2023-02-23T08:31:30;13.90;99.90
15554;DHT22;7878;44.632;10.942;2023-02-23T08:33:55;14.00;99.90
15554;DHT22;7878;44.632;10.942;2023-02-23T08:36:21;14.00;99.90
15554;DHT22;7878;44.632;10.942;2023-02-23T08:38:47;14.10;99.90
15554;DHT22;7878;44.632;10.942;2023-02-23T08:41:13;14.20;99.90
15554;DHT22;7878;44.632;10.942;2023-02-23T08:43:39;14.30;99.60
15554;DHT22;7878;44.632;10.942;2023-02-23T08:46:05;14.30;99.20
15554;DHT22;7878;44.632;10.942;2023-02-23T08:48:31;14.40;99.00
15554;DHT22;7878;44.632;10.942;2023-02-23T08:50:58;14.50;99.10
15554;DHT22;7878;44.632;10.942;2023-02-23T08:53:25;14.60;98.90
15554;DHT22;7878;44.632;10.942;2023-02-23T08:56:10;14.70;98.80
15554;DHT22;7878;44.632;10.942;2023-02-23T08:58:37;14.80;99.00
15554;DHT22;7878;44.632;10.942;2023-02-23T09:01:03;14.90;98.70
15554;DHT22;7878;44.632;10.942;2023-02-23T09:03:29;14.90;98.40
15554;DHT22;7878;44.632;10.942;2023-02-23T09:06:04;15.00;98.40
15554;DHT22;7878;44.632;10.942;2023-02-23T09:08:31;15.00;98.00
15554;DHT22;7878;44.632;10.942;2023-02-23T09:10:56;15.00;98.00
15554;DHT22;7878;44.632;10.942;2023-02-23T09:13:22;15.00;98.10
15554;DHT22;7878;44.632;10.942;2023-02-23T09:15:48;15.00;98.00
15554;DHT22;7878;44.632;10.942;2023-02-23T09:18:13;15.10;97.90
15554;DHT22;7878;44.632;10.942;2023-02-23T09:20:44;15.10;98.00
15554;DHT22;7878;44.632;10.942;2023-02-23T09:23:10;15.20;98.10
15554;DHT22;7878;44.632;10.942;2023-02-23T09:25:40;15.20;97.80
15554;DHT22;7878;44.632;10.942;2023-02-23T09:28:12;15.20;97.50
15554;DHT22;7878;44.632;10.942;2023-02-23T09:30:39;15.30;97.40
15554;DHT22;7878;44.632;10.942;2023-02-23T09:33:06;15.40;97.40
15554;DHT22;7878;44.632;10.942;2023-02-23T09:35:32;15.40;97.40
15554;DHT22;7878;44.632;10.942;2023-02-23T09:37:59;15.50;96.90
15554;DHT22;7878;44.632;10.942;2023-02-23T09:40:27;15.50;97.10
15554;DHT22;7878;44.632;10.942;2023-02-23T09:48:25;15.50;97.10
15554;DHT22;7878;44.632;10.942;2023-02-23T09:50:54;15.40;96.90
15554;DHT22;7878;44.632;10.942;2023-02-23T09:55:46;15.50;96.90
15554;DHT22;7878;44.632;10.942;2023-02-23T09:58:27;15.60;96.80
15554;DHT22;7878;44.632;10.942;2023-02-23T10:06:17;15.70;97.20
15554;DHT22;7878;44.632;10.942;2023-02-23T10:11:28;15.70;97.30
15554;DHT22;7878;44.632;10.942;2023-02-23T10:22:26;16.00;97.30
15554;DHT22;7878;44.632;10.942;2023-02-23T10:25:04;16.00;97.00
15554;DHT22;7878;44.632;10.942;2023-02-23T10:27:43;16.10;96.70
15554;DHT22;7878;44.632;10.942;2023-02-23T10:30:18;16.10;96.60
15554;DHT22;7878;44.632;10.942;2023-02-23T10:33:14;16.10;96.70
15554;DHT22;7878;44.632;10.942;2023-02-23T10:35:41;16.10;97.10
15554;DHT22;7878;44.632;10.942;2023-02-23T10:38:16;16.10;96.90
15554;DHT22;7878;44.632;10.942;2023-02-23T10:40:45;16.20;97.00
15554;DHT22;7878;44.632;10.942;2023-02-23T10:43:14;16.30;96.40
15554;DHT22;7878;44.632;10.942;2023-02-23T10:45:45;16.40;96.70
15554;DHT22;7878;44.632;10.942;2023-02-23T10:48:20;16.40;96.60
15554;DHT22;7878;44.632;10.942;2023-02-23T10:50:52;16.40;96.60
15554;DHT22;7878;44.632;10.942;2023-02-23T10:53:23;16.40;96.70
15554;DHT22;7878;44.632;10.942;2023-02-23T10:58:55;16.50;95.70
15554;DHT22;7878;44.632;10.942;2023-02-23T11:04:16;16.50;95.40
15554;DHT22;7878;44.632;10.942;2023-02-23T11:06:43;16.40;93.80
15554;DHT22;7878;44.632;10.942;2023-02-23T11:09:21;16.30;94.80
15554;DHT22;7878;44.632;10.942;2023-02-23T11:12:00;16.40;95.20
15554;DHT22;7878;44.632;10.942;2023-02-23T11:14:28;16.40;94.50
15554;DHT22;7878;44.632;10.942;2023-02-23T11:16:56;16.30;94.50
15554;DHT22;7878;44.632;10.942;2023-02-23T11:19:42;16.30;94.80
15554;DHT22;7878;44.632;10.942;2023-02-23T11:22:20;16.40;94.70
15554;DHT22;7878;44.632;10.942;2023-02-23T11:24:51;16.50;94.70
15554;DHT22;7878;44.632;10.942;2023-02-23T11:27:21;16.40;94.80
15554;DHT22;7878;44.632;10.942;2023-02-23T11:29:49;16.40;95.10
15554;DHT22;7878;44.632;10.942;2023-02-23T11:32:35;16.40;94.60
15554;DHT22;7878;44.632;10.942;2023-02-23T11:37:48;16.50;93.60
15554;DHT22;7878;44.632;10.942;2023-02-23T11:40:26;16.50;94.50
15554;DHT22;7878;44.632;10.942;2023-02-23T11:43:15;16.50;94.30
15554;DHT22;7878;44.632;10.942;2023-02-23T11:45:50;16.50;93.60
15554;DHT22;7878;44.632;10.942;2023-02-23T11:50:52;16.60;93.80
15554;DHT22;7878;44.632;10.942;2023-02-23T11:55:54;16.60;94.10
15554;DHT22;7878;44.632;10.942;2023-02-23T12:01:00;16.70;93.50
15554;DHT22;7878;44.632;10.942;2023-02-23T12:03:31;16.70;93.90
15554;DHT22;7878;44.632;10.942;2023-02-23T12:05:57;16.70;93.70
15554;DHT22;7878;44.632;10.942;2023-02-23T12:08:48;16.70;93.60
15554;DHT22;7878;44.632;10.942;2023-02-23T12:11:22;16.60;93.30
15554;DHT22;7878;44.632;10.942;2023-02-23T12:14:03;16.60;93.50
15554;DHT22;7878;44.632;10.942;2023-02-23T12:17:04;16.40;93.60
15554;DHT22;7878;44.632;10.942;2023-02-23T12:19:46;16.40;93.10
15554;DHT22;7878;44.632;10.942;2023-02-23T12:22:19;16.50;93.70
15554;DHT22;7878;44.632;10.942;2023-02-23T12:24:57;16.50;93.30
15554;DHT22;7878;44.632;10.942;2023-02-23T12:27:36;16.60;93.00
15554;DHT22;7878;44.632;10.942;2023-02-23T12:32:56;16.90;93.00
15554;DHT22;7878;44.632;10.942;2023-02-23T12:41:09;17.20;92.40
15554;DHT22;7878;44.632;10.942;2023-02-23T12:43:43;17.20;92.30
15554;DHT22;7878;44.632;10.942;2023-02-23T12:46:49;17.40;92.00
15554;DHT22;7878;44.632;10.942;2023-02-23T12:52:14;17.40;91.80
15554;DHT22;7878;44.632;10.942;2023-02-23T12:54:45;17.40;91.20
15554;DHT22;7878;44.632;10.942;2023-02-23T12:57:29;17.30;90.80
15554;DHT22;7878;44.632;10.942;2023-02-23T13:08:48;17.30;91.40
15554;DHT22;7878;44.632;10.942;2023-02-23T13:11:28;17.30;91.80
15554;DHT22;7878;44.632;10.942;2023-02-23T13:16:50;17.30;91.00
15554;DHT22;7878;44.632;10.942;2023-02-23T13:19:31;17.40;91.50
15554;DHT22;7878;44.632;10.942;2023-02-23T13:27:50;17.60;91.40
15554;DHT22;7878;44.632;10.942;2023-02-23T13:30:16;17.50;91.90
15554;DHT22;7878;44.632;10.942;2023-02-23T13:32:45;17.50;92.30
15554;DHT22;7878;44.632;10.942;2023-02-23T13:35:17;17.50;92.20
15554;DHT22;7878;44.632;10.942;2023-02-23T13:38:03;17.50;91.40
15554;DHT22;7878;44.632;10.942;2023-02-23T13:41:12;17.50;91.10
15554;DHT22;7878;44.632;10.942;2023-02-23T13:43:48;17.60;91.40
15554;DHT22;7878;44.632;10.942;2023-02-23T13:51:38;17.50;91.00
15554;DHT22;7878;44.632;10.942;2023-02-23T13:56:49;17.40;91.20
15554;DHT22;7878;44.632;10.942;2023-02-23T13:59:20;17.40;91.00
15554;DHT22;7878;44.632;10.942;2023-02-23T14:01:51;17.30;91.50
15554;DHT22;7878;44.632;10.942;2023-02-23T14:04:25;17.20;91.40
15554;DHT22;7878;44.632;10.942;2023-02-23T14:09:56;17.10;91.00
15554;DHT22;7878;44.632;10.942;2023-02-23T14:12:33;17.00;91.00
15554;DHT22;7878;44.632;10.942;2023-02-23T14:18:02;16.90;91.30
15554;DHT22;7878;44.632;10.942;2023-02-23T14:20:41;16.80;91.50
15554;DHT22;7878;44.632;10.942;2023-02-23T14:26:13;16.70;91.40
15554;DHT22;7878;44.632;10.942;2023-02-23T14:28:46;16.60;90.90
15554;DHT22;7878;44.632;10.942;2023-02-23T14:41:30;16.40;91.70
15554;DHT22;7878;44.632;10.942;2023-02-23T14:44:30;16.30;91.60
15554;DHT22;7878;44.632;10.942;2023-02-23T14:49:35;16.30;91.90
15554;DHT22;7878;44.632;10.942;2023-02-23T14:54:51;16.20;91.50
15554;DHT22;7878;44.632;10.942;2023-02-23T14:57:22;16.10;91.80
15554;DHT22;7878;44.632;10.942;2023-02-23T15:00:00;16.00;91.80
15554;DHT22;7878;44.632;10.942;2023-02-23T15:02:28;16.00;91.80
15554;DHT22;7878;44.632;10.942;2023-02-23T15:04:54;16.00;92.10
15554;DHT22;7878;44.632;10.942;2023-02-23T15:07:37;15.90;92.00
15554;DHT22;7878;44.632;10.942;2023-02-23T15:10:09;16.00;92.00
15554;DHT22;7878;44.632;10.942;2023-02-23T15:12:37;16.00;92.10
15554;DHT22;7878;44.632;10.942;2023-02-23T15:15:06;16.00;92.20
15554;DHT22;7878;44.632;10.942;2023-02-23T15:17:38;16.00;92.20
15554;DHT22;7878;44.632;10.942;2023-02-23T15:20:07;15.90;92.20
15554;DHT22;7878;44.632;10.942;2023-02-23T15:22:37;16.00;92.30
15554;DHT22;7878;44.632;10.942;2023-02-23T15:25:20;15.90;92.20
15554;DHT22;7878;44.632;10.942;2023-02-23T15:27:47;15.90;92.60
15554;DHT22;7878;44.632;10.942;2023-02-23T15:30:30;16.00;92.60
15554;DHT22;7878;44.632;10.942;2023-02-23T15:33:08;16.10;92.30
15554;DHT22;7878;44.632;10.942;2023-02-23T15:35:41;16.10;92.40
15554;DHT22;7878;44.632;10.942;2023-02-23T15:38:15;16.10;92.30
15554;DHT22;7878;44.632;10.942;2023-02-23T15:40:42;16.10;92.30
15554;DHT22;7878;44.632;10.942;2023-02-23T15:43:10;16.20;92.50
15554;DHT22;7878;44.632;10.942;2023-02-23T15:45:43;16.10;92.40
15554;DHT22;7878;44.632;10.942;2023-02-23T15:48:25;16.20;92.40
15554;DHT22;7878;44.632;10.942;2023-02-23T15:50:54;16.10;92.60
15554;DHT22;7878;44.632;10.942;2023-02-23T15:55:54;16.10;92.60
15554;DHT22;7878;44.632;10.942;2023-02-23T15:58:27;16.10;92.60
15554;DHT22;7878;44.632;10.942;2023-02-23T16:01:06;16.00;92.60
15554;DHT22;7878;44.632;10.942;2023-02-23T16:03:35;16.00;92.50
15554;DHT22;7878;44.632;10.942;2023-02-23T16:06:04;15.90;92.50
15554;DHT22;7878;44.632;10.942;2023-02-23T16:08:31;15.80;92.70
15554;DHT22;7878;44.632;10.942;2023-02-23T16:11:09;15.70;92.70
15554;DHT22;7878;44.632;10.942;2023-02-23T16:13:40;15.70;92.80
15554;DHT22;7878;44.632;10.942;2023-02-23T16:16:08;15.70;92.80
15554;DHT22;7878;44.632;10.942;2023-02-23T16:18:40;15.60;92.80
15554;DHT22;7878;44.632;10.942;2023-02-23T16:21:18;15.60;92.80
15554;DHT22;7878;44.632;10.942;2023-02-23T16:23:48;15.70;92.90
15554;DHT22;7878;44.632;10.942;2023-02-23T16:28:42;15.50;92.80
15554;DHT22;7878;44.632;10.942;2023-02-23T16:31:10;15.50;92.90
15554;DHT22;7878;44.632;10.942;2023-02-23T16:33:50;15.50;93.00
15554;DHT22;7878;44.632;10.942;2023-02-23T16:36:20;15.40;93.00
15554;DHT22;7878;44.632;10.942;2023-02-23T16:39:03;15.40;93.10
15554;DHT22;7878;44.632;10.942;2023-02-23T16:41:32;15.40;93.10
15554;DHT22;7878;44.632;10.942;2023-02-23T16:44:04;15.30;93.10
15554;DHT22;7878;44.632;10.942;2023-02-23T16:49:21;15.30;93.20
15554;DHT22;7878;44.632;10.942;2023-02-23T16:51:49;15.30;93.30
15554;DHT22;7878;44.632;10.942;2023-02-23T16:54:15;15.20;93.30
15554;DHT22;7878;44.632;10.942;2023-02-23T16:56:41;15.20;93.40
15554;DHT22;7878;44.632;10.942;2023-02-23T16:59:14;15.20;93.50
15554;DHT22;7878;44.632;10.942;2023-02-23T17:01:40;15.10;93.50
15554;DHT22;7878;44.632;10.942;2023-02-23T17:04:13;15.10;93.50
15554;DHT22;7878;44.632;10.942;2023-02-23T17:06:40;15.10;93.70
15554;DHT22;7878;44.632;10.942;2023-02-23T17:09:08;15.00;93.70
15554;DHT22;7878;44.632;10.942;2023-02-23T17:11:35;15.00;93.80
15554;DHT22;7878;44.632;10.942;2023-02-23T17:14:00;15.00;94.00
15554;DHT22;7878;44.632;10.942;2023-02-23T17:16:26;15.00;94.00
15554;DHT22;7878;44.632;10.942;2023-02-23T17:18:52;15.00;94.00
15554;DHT22;7878;44.632;10.942;2023-02-23T17:21:20;14.90;94.00
15554;DHT22;7878;44.632;10.942;2023-02-23T17:23:48;15.00;94.00
15554;DHT22;7878;44.632;10.942;2023-02-23T17:26:20;15.00;94.00
15554;DHT22;7878;44.632;10.942;2023-02-23T17:28:46;15.00;94.00
15554;DHT22;7878;44.632;10.942;2023-02-23T17:31:13;15.00;94.00
15554;DHT22;7878;44.632;10.942;2023-02-23T17:33:40;15.00;94.00
15554;DHT22;7878;44.632;10.942;2023-02-23T17:36:09;15.00;94.00
15554;DHT22;7878;44.632;10.942;2023-02-23T17:38:35;15.00;94.00
15554;DHT22;7878;44.632;10.942;2023-02-23T17:41:03;15.00;94.00
15554;DHT22;7878;44.632;10.942;2023-02-23T17:43:29;15.00;94.10
15554;DHT22;7878;44.632;10.942;2023-02-23T17:45:54;15.00;94.10
15554;DHT22;7878;44.632;10.942;2023-02-23T17:48:21;15.00;94.20
15554;DHT22;7878;44.632;10.942;2023-02-23T17:50:47;15.00;94.20
15554;DHT22;7878;44.632;10.942;2023-02-23T17:53:13;15.00;94.20
15554;DHT22;7878;44.632;10.942;2023-02-23T17:55:39;14.90;94.10
15554;DHT22;7878;44.632;10.942;2023-02-23T17:58:04;14.90;94.20
15554;DHT22;7878;44.632;10.942;2023-02-23T18:00:30;14.90;94.20
15554;DHT22;7878;44.632;10.942;2023-02-23T18:03:02;14.90;94.20
15554;DHT22;7878;44.632;10.942;2023-02-23T18:05:27;14.80;94.30
15554;DHT22;7878;44.632;10.942;2023-02-23T18:07:53;14.80;94.40
15554;DHT22;7878;44.632;10.942;2023-02-23T18:10:19;14.70;94.40
15554;DHT22;7878;44.632;10.942;2023-02-23T18:12:50;14.70;94.40
15554;DHT22;7878;44.632;10.942;2023-02-23T18:15:15;14.70;94.40
15554;DHT22;7878;44.632;10.942;2023-02-23T18:17:43;14.60;94.50